Terminal Aerodrome Forecast
Issued by NWS Shreveport, LA

Home | Current Version | Previous Version | Text Only | Print | Product List | Glossary On
Versions: 1 2 3 4 5 6 7 8 9 10 11 12 13 14 15 16 17 18
920
FTUS44 KSHV 222320
TAFMLU
TAF
KMLU 222320Z 2300/2324 15006KT P6SM VCTS SCT050CB SCT250
     FM230100 00000KT P6SM FEW050 FEW180
     FM231400 35004KT P6SM FEW045 SCT200
     FM231800 02006KT P6SM VCTS BKN050CB BKN250=

USA.gov is the U.S. government's official web portal to all federal, state and local government web resources and services.